WEATHER DATA

YESTERDAY
Time Temp. Dewp. Hum. Wind dir Wind speed Wind gust Bar. 1h Prec. 24h Prec.
00:06 23.2 11.9 49 12 0.3 0.6 1016.9 0.0000 0.0000
00:17 23 11.7 49 21 0.3 0.6 1016.9 0.0000 0.0000
00:26 22.9 11.9 50 0 0.3 1017 0.0000 0.0000
00:36 22.8 11.8 50 26 0.3 0.6 1017.1 0.0000 0.0000
00:46 22.6 12 51 21 0.3 0.6 1017.2 0.0000 0.0000
00:57 22.5 11.9 51 0 0.6 1017.2 0.0000 0.0000
01:07 22.3 11.7 51 8 0.3 0.6 1017.2 0.0000 0.0000
01:17 22.2 11.9 52 28 0.3 0.6 1017.2 0.0000 0.0000
01:27 22.1 11.8 52 21 0.3 0.6 1017.2 0.0000 0.0000
01:37 21.9 11.6 52 18 0.3 0.6 1017.2 0.0000 0.0000
01:47 21.7 11.4 52 24 0.3 0.6 1017.2 0.0000 0.0000
01:57 21.6 11.6 53 24 0.3 0.8 1017.3 0.0000 0.0000
02:08 21.4 11.4 53 15 0.3 0.6 1017.3 0.0000 0.0000
02:18 21.3 11.3 53 21 0.3 0.6 1017.2 0.0000 0.0000
02:27 21.2 11.5 54 15 0.3 0.6 1017.1 0.0000 0.0000
02:38 21.2 11.5 54 28 0.3 0.6 1017.1 0.0000 0.0000
02:48 21.1 11.4 54 4 0.3 0.6 1017 0.0000 0.0000
03:08 20.9 11.5 55 15 0.3 0.6 1017 0.0000 0.0000
03:18 20.8 11.4 55 30 0.3 0.6 1016.9 0.0000 0.0000
03:28 20.7 11.3 55 28 0.3 0.8 1016.9 0.0000 0.0000
03:38 20.6 11.3 55 21 0.3 0.6 1016.8 0.0000 0.0000
03:48 20.6 11.3 55 32 0.3 0.6 1016.8 0.0000 0.0000
03:59 20.5 11.2 55 21 0.3 0.6 1016.8 0.0000 0.0000
04:09 20.4 11.3 56 15 0.3 0.6 1016.8 0.0000 0.0000
04:18 20.4 11.3 56 0 0.3 1016.8 0.0000 0.0000
04:29 20.3 11.2 56 11 0.3 0.6 1016.8 0.0000 0.0000
04:39 20.3 11.5 57 9 0.3 0.6 1016.7 0.0000 0.0000
04:49 20.2 11.7 58 0 0.6 1016.7 0.0000 0.0000
04:59 20.1 11.6 58 0 0.6 1016.7 0.0000 0.0000
05:10 19.9 11.7 59 0 0.6 1016.7 0.0000 0.0000
05:19 19.8 11.6 59 0 0.3 1016.7 0.0000 0.0000
05:29 19.7 11.7 60 15 0.3 0.6 1016.7 0.0000 0.0000
05:40 19.7 11.7 60 0 0.3 1016.7 0.0000 0.0000
05:50 19.6 11.6 60 0 0.6 1016.7 0.0000 0.0000
06:00 19.6 11.6 60 0 0.6 1016.6 0.0000 0.0000
06:09 19.6 11.6 60 0 0.3 1016.6 0.0000 0.0000
06:20 19.5 11.8 61 0 0.3 1016.7 0.0000 0.0000
06:30 19.5 11.8 61 350 0.3 0.6 1016.6 0.0000 0.0000
06:40 19.4 11.7 61 0 0.6 1016.6 0.0000 0.0000
06:50 19.4 11.7 61 0 0.6 1016.7 0.0000 0.0000
07:01 19.4 11.7 61 0 0.6 1016.8 0.0000 0.0000
07:10 19.5 12 62 5 0.3 0.6 1016.8 0.0000 0.0000
07:20 19.6 11.9 61 15 0.3 0.6 1016.7 0.0000 0.0000
07:31 19.7 12.2 62 0 0.3 1016.6 0.0000 0.0000
07:41 19.8 12.3 62 15 0.3 0.6 1016.6 0.0000 0.0000
07:51 19.8 12.1 61 18 0.3 0.6 1016.6 0.0000 0.0000
08:01 19.9 12.2 61 11 0.3 0.6 1016.5 0.0000 0.0000
08:11 20 12.3 61 5 0.3 0.6 1016.5 0.0000 0.0000
08:21 20.2 12.4 61 24 0.3 0.6 1016.5 0.0000 0.0000
08:31 20.4 12.4 60 26 0.3 0.6 1016.5 0.0000 0.0000
08:42 20.7 12.4 59 21 0.3 0.6 1016.5 0.0000 0.0000
08:52 21 12.4 58 21 0.3 0.6 1016.4 0.0000 0.0000
09:01 21.2 12.4 57 29 0.3 0.6 1016.2 0.0000 0.0000
09:11 21.5 12.4 56 26 0.3 0.3 1016.1 0.0000 0.0000
09:22 21.7 12.5 56 12 0.3 0.6 1016.1 0.0000 0.0000
09:32 22 12.6 55 26 0.3 0.6 1016.1 0.0000 0.0000
09:42 22.2 12.5 54 12 0.3 0.6 1016 0.0000 0.0000
09:52 22.5 12.5 53 23 0.3 0.6 1015.9 0.0000 0.0000
10:02 22.7 12.3 52 15 0.3 0.6 1015.9 0.0000 0.0000
10:12 22.9 12.5 52 18 0.3 0.6 1015.8 0.0000 0.0000
10:22 23.1 12.4 51 14 0.3 0.8 1015.7 0.0000 0.0000
10:33 23.3 12.6 51 18 0.3 0.6 1015.5 0.0000 0.0000
10:43 23.5 12.5 50 23 0.3 0.6 1015.5 0.0000 0.0000
10:53 23.8 12.8 50 18 0.3 0.6 1015.3 0.0000 0.0000
11:03 24.1 12.7 49 10 0.3 0.6 1015.2 0.0000 0.0000
11:13 24.5 12.5 47 20 0.3 0.6 1015.2 0.0000 0.0000
11:23 24.8 12.7 47 12 0.3 0.8 1015 0.0000 0.0000
11:33 25.1 12.7 46 18 0.3 0.8 1014.8 0.0000 0.0000
11:44 25.3 12.5 45 20 0.3 0.6 1014.7 0.0000 0.0000
11:53 25.6 12.5 44 12 0.3 0.8 1014.6 0.0000 0.0000
12:03 25.9 12.4 43 10 0.3 0.8 1014.3 0.0000 0.0000
12:13 26.2 12.6 43 18 0.3 0.6 1014.3 0.0000 0.0000
12:24 26.5 12.6 42 16 0.3 0.8 1014.1 0.0000 0.0000
12:34 26.8 12.5 41 11 0.3 1.1 1014 0.0000 0.0000
12:44 27.1 12.7 41 18 0.3 0.8 1013.8 0.0000 0.0000
12:54 27.4 12.2 39 21 0.3 1.1 1013.7 0.0000 0.0000
13:04 27.7 12.9 40 22 0.3 0.6 1013.5 0.0000 0.0000
13:14 28 12.8 39 29 0.3 0.8 1013.2 0.0000 0.0000
13:24 28.3 13 39 18 0.3 1.4 1013.1 0.0000 0.0000
13:35 28.6 12.5 37 19 0.3 0.8 1013 0.0000 0.0000
13:45 29.1 13.3 38 27 0.3 0.8 1012.9 0.0000 0.0000
13:54 29.5 12.9 36 18 0.3 1.4 1012.8 0.0000 0.0000
14:05 29.8 13.1 36 24 0.3 1.1 1012.6 0.0000 0.0000
14:25 29.9 12.8 35 21 0.3 0.8 1012.6 0.0000 0.0000
14:35 29.6 12.5 35 15 0.3 1.1 1012.7 0.0000 0.0000
14:45 29.1 14.9 42 2 0.6 1.4 1013.6 0.0000 0.0000
14:55 27.9 14.9 45 351 0.6 2.2 1013.7 0.0000 0.0000
15:05 27.1 14.2 45 352 0.3 0.8 1013.6 0.0000 0.0000
15:15 26.9 14.3 46 16 0.3 0.8 1013.3 0.0000 0.0000
15:26 26.8 14.6 47 8 0.3 1.1 1013.2 0.0000 0.0000
15:36 26.9 14.3 46 349 0.3 0.8 1013 0.0000 0.0000
15:45 27.1 14.5 46 11 0.3 0.8 1012.9 0.0000 0.0000
15:56 27.4 14.4 45 16 0.3 0.8 1012.8 0.0000 0.0000
16:06 27.5 13.8 43 18 0.3 1.1 1012.9 0.0000 0.0000
16:16 27.6 14.9 46 9 0.3 0.8 1013 0.0000 0.0000
16:26 27.6 14.6 45 20 0.3 0.8 1013 0.0000 0.0000
16:37 27.7 15 46 13 0.3 0.8 1013 0.0000 0.0000
16:46 27.7 15 46 8 0.3 0.8 1013 0.0000 0.0000
16:56 27.7 14.7 45 13 0.3 0.8 1013.1 0.0000 0.0000
17:07 27.4 14.8 46 5 0.3 0.8 1013.1 0.0000 0.0000
17:17 27 14.4 46 13 0.3 0.8 1013 0.0000 0.0000
17:27 26.6 14 46 18 0.3 0.6 1013.3 0.0000 0.0000
17:36 26.4 14.2 47 20 0.3 0.8 1013.7 0.0000 0.0000
17:47 25.9 14.7 50 14 0.3 0.8 1013.7 0.0000 0.0000
17:57 25.4 14.2 50 0 0.3 1.1 1014 0.0000 0.0000
18:07 24.9 15 54 12 0.3 0.6 1014.4 0.0000 0.0000
18:17 24.4 16.1 60 15 0.3 1.4 1014.6 0.0000 0.0000
18:28 23.7 16.5 64 350 0.3 1.4 1014.8 0.0000 0.0000
18:37 22.9 15.2 62 296 0.6 2.2 1015.1 0.0000 0.0000
18:47 22.1 14.7 63 270 0.6 2.5 1015.1 0.0000 0.0000
18:58 21.4 15 67 270 0.6 2.5 1015.3 0.1010 0.1000
19:08 20.8 14.9 69 21 0.3 0.6 1015.6 0.1010 0.1000
19:18 20.4 15 71 0 0.6 1015.9 0.1010 0.1000
19:28 20.2 15 72 351 0.3 0.6 1016 0.1010 0.1000
19:38 20.1 15.1 73 12 0.3 0.6 1016.1 0.1010 0.1000
19:48 20 15.2 74 36 0.3 0.8 1016.4 0.1010 0.1000
19:58 20 15.4 75 45 0.3 0.6 1016.5 0.0000 0.1000
20:19 20.1 15.3 74 0 0.6 1016.2 0.0000 0.1000
20:28 20.1 14.9 72 0 0.6 1015.9 0.0000 0.1000
20:38 20.1 15.3 74 0 0.6 1015.8 0.0000 0.1000
20:49 20.1 15.3 74 0 0.6 1015.6 0.0000 0.1000
20:59 20.1 15.3 74 0 0.6 1015.6 0.0000 0.1000
21:09 20.1 15.5 75 12 0.3 0.6 1015.7 0.0000 0.1000
21:19 20.1 15.3 74 8 0.3 0.6 1015.7 0.0000 0.1000
21:29 20.1 15.1 73 24 0.3 0.6 1015.7 0.0000 0.1000
21:39 20 15.2 74 26 0.3 0.6 1015.9 0.0000 0.1000
21:49 20 15.4 75 5 0.3 0.8 1015.7 0.0000 0.1000
22:00 19.9 15.1 74 348 0.3 1.1 1015.7 0.0000 0.1000
22:10 19.9 15.3 75 341 0.3 0.8 1015.8 0.0000 0.1000
22:20 19.7 15.1 75 348 0.3 1.1 1015.8 0.0000 0.1000
22:30 19.6 15.1 75 315 0.3 1.1 1015.8 0.0000 0.1000
22:40 19.5 15.2 76 8 0.3 0.6 1015.7 0.0000 0.1000
22:50 19.3 15 76 315 0.3 0.8 1015.6 0.0000 0.1000
23:00 19.2 15.1 77 11 0.3 0.6 1015.6 0.0000 0.1000
23:11 19.1 15 77 315 0.3 0.8 1015.6 0.0000 0.1000
23:20 19.1 15.2 78 270 0.3 0.8 1015.6 0.0000 0.1000
23:30 19 15.1 78 0 0.6 1015.5 0.0000 0.1000
23:40 19 15.1 78 0 0.3 1015.6 0.0000 0.1000
23:51 19 15.1 78 0 0.6 1015.6 0.0000 0.1000

DAY STATISTIC

2018-07-20
TEMPERATURE
AVERAGE
22.7
HIGH
29.9
14:25
LOW
19.0
23:30
PRESSURE
AVERAGE
1015.5
HIGH
1017.3
01:57
LOW
1012.6
14:05
DEWPOINT
AVERAGE
13.2
HIGH
16.5
18:28
LOW
11.2
03:59
HUMIDITY
AVERAGE
56
HIGH
78
23:20
LOW
35
14:25
WIND SPEED
AVERAGE
0.3
HIGH
0.6
14:45
WIND GUST
AVERAGE
0.7
HIGH
2.5
18:47
WIND DIRECTION
PREVAILING
N
61.2%
N
61.2
NE
15.8
E
0.0
SE
0.0
S
0.0
SW
0.0
W
2.2
NW
2.9
PRECIPITATION
RAIN HOUR
0.1
RAIN DAY
0.1
TEMPERATURE (°C)
LOW
19.0
HIGH
29.9
AVERAGE
22.7
PRESSURE (hpa)
LOW
1012.6
HIGH
1017.3
AVERAGE
1015.5
DEVICE